sensor_id;sensor_type;location;lat;lon;timestamp;P1;durP1;ratioP1;P2;durP2;ratioP2
9467;SDS011;4772;52.382;9.752;2024-03-17T05:28:38;13.80;;;4.63;;
9467;SDS011;4772;52.382;9.752;2024-03-17T05:31:08;12.00;;;4.40;;
9467;SDS011;4772;52.382;9.752;2024-03-17T05:36:51;9.27;;;4.13;;
9467;SDS011;4772;52.382;9.752;2024-03-17T05:39:18;9.33;;;4.03;;
9467;SDS011;4772;52.382;9.752;2024-03-17T05:41:48;9.50;;;4.50;;
9467;SDS011;4772;52.382;9.752;2024-03-17T05:44:15;12.60;;;4.47;;
9467;SDS011;4772;52.382;9.752;2024-03-17T05:46:43;12.47;;;4.43;;
9467;SDS011;4772;52.382;9.752;2024-03-17T05:49:09;9.63;;;4.47;;
9467;SDS011;4772;52.382;9.752;2024-03-17T05:51:35;7.43;;;4.33;;
9467;SDS011;4772;52.382;9.752;2024-03-17T05:56:50;7.43;;;3.63;;
9467;SDS011;4772;52.382;9.752;2024-03-17T05:59:23;12.33;;;4.50;;
9467;SDS011;4772;52.382;9.752;2024-03-17T06:01:49;11.50;;;4.67;;
9467;SDS011;4772;52.382;9.752;2024-03-17T06:04:21;9.03;;;4.70;;
9467;SDS011;4772;52.382;9.752;2024-03-17T06:06:56;12.97;;;5.00;;
9467;SDS011;4772;52.382;9.752;2024-03-17T06:09:22;13.47;;;5.40;;
9467;SDS011;4772;52.382;9.752;2024-03-17T06:11:55;9.87;;;4.43;;
9467;SDS011;4772;52.382;9.752;2024-03-17T06:14:21;10.43;;;4.80;;
9467;SDS011;4772;52.382;9.752;2024-03-17T06:16:47;10.33;;;4.80;;
9467;SDS011;4772;52.382;9.752;2024-03-17T06:19:13;9.77;;;4.20;;
9467;SDS011;4772;52.382;9.752;2024-03-17T06:21:39;10.23;;;4.30;;
9467;SDS011;4772;52.382;9.752;2024-03-17T06:24:08;9.27;;;4.30;;
9467;SDS011;4772;52.382;9.752;2024-03-17T06:26:34;9.17;;;4.73;;
9467;SDS011;4772;52.382;9.752;2024-03-17T06:29:03;10.57;;;4.40;;
9467;SDS011;4772;52.382;9.752;2024-03-17T06:31:34;13.00;;;4.97;;
9467;SDS011;4772;52.382;9.752;2024-03-17T06:34:07;8.97;;;4.20;;
9467;SDS011;4772;52.382;9.752;2024-03-17T06:36:51;10.20;;;4.30;;
9467;SDS011;4772;52.382;9.752;2024-03-17T06:39:29;8.37;;;4.37;;
9467;SDS011;4772;52.382;9.752;2024-03-17T06:42:04;7.33;;;4.13;;
9467;SDS011;4772;52.382;9.752;2024-03-17T06:44:30;7.57;;;3.77;;
9467;SDS011;4772;52.382;9.752;2024-03-17T06:46:58;6.40;;;3.57;;
9467;SDS011;4772;52.382;9.752;2024-03-17T06:49:27;8.50;;;3.93;;
9467;SDS011;4772;52.382;9.752;2024-03-17T06:52:00;7.00;;;3.40;;
9467;SDS011;4772;52.382;9.752;2024-03-17T08:28:18;10.10;;;4.20;;
9467;SDS011;4772;52.382;9.752;2024-03-17T08:33:58;9.23;;;3.80;;
9467;SDS011;4772;52.382;9.752;2024-03-17T08:36:36;9.50;;;3.63;;
9467;SDS011;4772;52.382;9.752;2024-03-17T08:39:19;8.77;;;3.90;;
9467;SDS011;4772;52.382;9.752;2024-03-17T08:45:10;10.30;;;3.40;;
9467;SDS011;4772;52.382;9.752;2024-03-17T08:47:39;9.80;;;3.50;;
9467;SDS011;4772;52.382;9.752;2024-03-17T08:50:12;7.00;;;3.80;;
9467;SDS011;4772;52.382;9.752;2024-03-17T08:52:45;7.03;;;2.93;;
9467;SDS011;4772;52.382;9.752;2024-03-17T08:55:29;7.50;;;3.00;;
9467;SDS011;4772;52.382;9.752;2024-03-17T08:57:55;10.75;;;3.17;;
9467;SDS011;4772;52.382;9.752;2024-03-17T09:00:21;7.22;;;3.00;;
9467;SDS011;4772;52.382;9.752;2024-03-17T09:02:47;7.78;;;3.08;;
9467;SDS011;4772;52.382;9.752;2024-03-17T09:05:13;6.30;;;3.20;;
9467;SDS011;4772;52.382;9.752;2024-03-17T09:07:40;9.05;;;3.65;;
9467;SDS011;4772;52.382;9.752;2024-03-17T09:10:07;7.57;;;3.13;;
9467;SDS011;4772;52.382;9.752;2024-03-17T09:12:33;10.35;;;3.63;;
9467;SDS011;4772;52.382;9.752;2024-03-17T09:15:01;7.03;;;2.78;;
9467;SDS011;4772;52.382;9.752;2024-03-17T09:17:27;10.73;;;3.53;;
9467;SDS011;4772;52.382;9.752;2024-03-17T09:20:06;8.07;;;2.90;;
9467;SDS011;4772;52.382;9.752;2024-03-17T09:22:36;11.30;;;3.83;;
9467;SDS011;4772;52.382;9.752;2024-03-17T09:25:04;6.93;;;3.00;;
9467;SDS011;4772;52.382;9.752;2024-03-17T09:27:32;8.00;;;3.20;;
9467;SDS011;4772;52.382;9.752;2024-03-17T09:29:58;8.37;;;3.50;;
9467;SDS011;4772;52.382;9.752;2024-03-17T09:32:25;8.10;;;3.30;;
9467;SDS011;4772;52.382;9.752;2024-03-17T09:34:51;7.53;;;3.33;;
9467;SDS011;4772;52.382;9.752;2024-03-17T09:37:20;7.67;;;3.10;;
9467;SDS011;4772;52.382;9.752;2024-03-17T09:39:47;8.50;;;3.60;;
9467;SDS011;4772;52.382;9.752;2024-03-17T09:42:19;9.93;;;3.47;;
9467;SDS011;4772;52.382;9.752;2024-03-17T09:44:48;9.50;;;3.70;;
9467;SDS011;4772;52.382;9.752;2024-03-17T09:47:24;7.47;;;3.38;;
9467;SDS011;4772;52.382;9.752;2024-03-17T09:49:51;8.60;;;3.33;;
9467;SDS011;4772;52.382;9.752;2024-03-17T09:52:21;8.95;;;3.67;;
9467;SDS011;4772;52.382;9.752;2024-03-17T09:54:54;11.25;;;3.72;;
9467;SDS011;4772;52.382;9.752;2024-03-17T09:57:21;8.97;;;3.70;;
9467;SDS011;4772;52.382;9.752;2024-03-17T09:59:52;8.80;;;3.97;;
9467;SDS011;4772;52.382;9.752;2024-03-17T10:02:22;9.77;;;4.17;;
9467;SDS011;4772;52.382;9.752;2024-03-17T10:04:48;8.93;;;4.27;;
9467;SDS011;4772;52.382;9.752;2024-03-17T10:07:14;10.10;;;4.60;;
9467;SDS011;4772;52.382;9.752;2024-03-17T10:09:43;8.67;;;4.00;;
9467;SDS011;4772;52.382;9.752;2024-03-17T10:12:29;11.10;;;4.10;;
9467;SDS011;4772;52.382;9.752;2024-03-17T10:15:16;8.93;;;4.37;;
9467;SDS011;4772;52.382;9.752;2024-03-17T10:17:52;10.30;;;4.23;;
9467;SDS011;4772;52.382;9.752;2024-03-17T10:20:20;11.37;;;4.67;;
9467;SDS011;4772;52.382;9.752;2024-03-17T10:28:34;11.00;;;4.57;;
9467;SDS011;4772;52.382;9.752;2024-03-17T10:31:01;9.90;;;4.70;;
9467;SDS011;4772;52.382;9.752;2024-03-17T10:33:33;10.40;;;4.40;;
9467;SDS011;4772;52.382;9.752;2024-03-17T10:35:59;10.03;;;5.00;;
9467;SDS011;4772;52.382;9.752;2024-03-17T10:38:26;10.10;;;4.23;;
9467;SDS011;4772;52.382;9.752;2024-03-17T10:40:55;11.67;;;4.60;;
9467;SDS011;4772;52.382;9.752;2024-03-17T10:43:22;8.63;;;5.00;;
9467;SDS011;4772;52.382;9.752;2024-03-17T10:45:53;11.03;;;5.13;;
9467;SDS011;4772;52.382;9.752;2024-03-17T10:48:20;8.93;;;4.83;;
9467;SDS011;4772;52.382;9.752;2024-03-17T10:50:47;13.13;;;5.67;;
9467;SDS011;4772;52.382;9.752;2024-03-17T10:53:15;12.13;;;4.53;;
9467;SDS011;4772;52.382;9.752;2024-03-17T10:55:44;10.60;;;5.07;;
9467;SDS011;4772;52.382;9.752;2024-03-17T10:58:53;8.03;;;4.90;;
9467;SDS011;4772;52.382;9.752;2024-03-17T11:01:04;10.13;;;5.37;;
9467;SDS011;4772;52.382;9.752;2024-03-17T11:03:32;9.73;;;4.47;;
9467;SDS011;4772;52.382;9.752;2024-03-17T11:06:04;10.75;;;4.95;;
9467;SDS011;4772;52.382;9.752;2024-03-17T11:08:33;8.77;;;5.03;;
9467;SDS011;4772;52.382;9.752;2024-03-17T11:11:02;8.25;;;5.40;;
9467;SDS011;4772;52.382;9.752;2024-03-17T11:13:29;8.90;;;5.30;;
9467;SDS011;4772;52.382;9.752;2024-03-17T11:15:56;10.82;;;5.53;;
9467;SDS011;4772;52.382;9.752;2024-03-17T11:18:38;9.35;;;5.20;;
9467;SDS011;4772;52.382;9.752;2024-03-17T11:21:10;7.68;;;5.18;;
9467;SDS011;4772;52.382;9.752;2024-03-17T11:23:54;6.57;;;4.80;;
9467;SDS011;4772;52.382;9.752;2024-03-17T11:26:33;10.32;;;5.50;;
9467;SDS011;4772;52.382;9.752;2024-03-17T11:29:23;6.65;;;4.95;;
9467;SDS011;4772;52.382;9.752;2024-03-17T11:31:54;10.00;;;6.05;;
9467;SDS011;4772;52.382;9.752;2024-03-17T11:34:36;9.73;;;6.40;;
9467;SDS011;4772;52.382;9.752;2024-03-17T11:37:06;8.13;;;5.82;;
9467;SDS011;4772;52.382;9.752;2024-03-17T11:39:48;8.13;;;5.15;;
9467;SDS011;4772;52.382;9.752;2024-03-17T11:42:37;10.50;;;5.50;;
9467;SDS011;4772;52.382;9.752;2024-03-17T11:45:31;11.77;;;6.33;;
9467;SDS011;4772;52.382;9.752;2024-03-17T11:48:00;8.53;;;5.80;;
9467;SDS011;4772;52.382;9.752;2024-03-17T11:50:32;11.77;;;5.63;;
9467;SDS011;4772;52.382;9.752;2024-03-17T11:53:01;8.30;;;5.67;;
9467;SDS011;4772;52.382;9.752;2024-03-17T11:55:30;8.90;;;5.53;;
